Time;durP1;ratioP1;P1;durP2;ratioP2;P2;SDS_P1;SDS_P2;PMS_P1;PMS_P2;Temp;Humidity;BMP_temperature;BMP_pressure;BME280_temperature;BME280_humidity;BME280_pressure;Samples;Min_cycle;Max_cycle;Signal;HPM_P1;HPM_P2
2023/03/07 00:00:12;;;;;;;14.90;8.00;;;7.80;99.90;;;7.85;89.17;99719.91;5034450;28;20096;-69
2023/03/07 00:02:40;;;;;;;17.85;7.95;;;7.70;99.90;;;7.90;89.24;99706.66;5033887;28;20068;-69
2023/03/07 00:05:09;;;;;;;17.52;8.73;;;7.80;99.90;;;7.87;89.33;99710.22;5033714;28;20483;-69
2023/03/07 00:07:37;;;;;;;18.75;8.70;;;7.70;99.90;;;7.91;90.02;99711.94;5034022;28;20045;-69
2023/03/07 00:10:08;;;;;;;17.33;8.77;;;7.70;99.90;;;7.92;89.84;99716.28;5034059;28;20049;-69
2023/03/07 00:12:37;;;;;;;28.42;9.80;;;7.80;99.90;;;7.89;89.63;99715.47;5034037;28;20258;-69
2023/03/07 00:15:08;;;;;;;24.53;9.50;;;7.80;99.90;;;7.79;90.33;99714.72;5033678;28;20515;-69
2023/03/07 00:17:37;;;;;;;16.15;9.18;;;7.70;99.90;;;7.76;90.73;99712.09;5033655;28;20322;-69
2023/03/07 00:20:09;;;;;;;16.65;8.95;;;7.60;99.90;;;7.79;90.48;99706.81;5033795;28;20091;-70
2023/03/07 00:22:38;;;;;;;21.10;9.32;;;7.60;99.90;;;7.62;90.57;99706.16;5033517;28;20045;-69
2023/03/07 00:25:07;;;;;;;14.25;8.52;;;7.50;99.90;;;7.71;90.66;99711.28;5033329;28;20042;-69
2023/03/07 00:27:37;;;;;;;17.35;9.38;;;7.50;99.90;;;7.62;90.42;99714.03;5033647;28;20037;-69
2023/03/07 00:30:06;;;;;;;16.85;9.40;;;7.50;99.90;;;7.74;90.23;99708.59;5033565;28;20511;-69
2023/03/07 00:32:35;;;;;;;16.33;9.13;;;7.60;99.90;;;7.69;89.61;99706.94;5033556;28;20473;-70
2023/03/07 00:35:03;;;;;;;18.25;9.07;;;7.60;99.90;;;7.70;89.16;99700.78;5032250;28;20060;-70
2023/03/07 00:37:32;;;;;;;18.70;10.10;;;7.60;99.90;;;7.77;89.71;99708.59;5033469;28;20100;-69
2023/03/07 00:40:00;;;;;;;19.85;9.10;;;7.60;99.90;;;7.88;89.81;99706.69;5033640;28;20045;-69
2023/03/07 00:42:28;;;;;;;20.20;9.52;;;7.70;99.90;;;7.91;89.19;99700.53;5032053;28;20053;-69
2023/03/07 00:44:58;;;;;;;14.93;9.05;;;7.70;99.90;;;7.94;89.36;99703.97;5031648;28;20049;-69
2023/03/07 00:47:26;;;;;;;17.30;10.32;;;7.80;99.90;;;7.82;89.22;99690.97;5031250;28;20045;-70
2023/03/07 00:49:55;;;;;;;18.45;9.60;;;7.70;99.90;;;7.93;88.90;99694.34;5032239;28;20046;-69
2023/03/07 00:52:23;;;;;;;16.90;10.35;;;7.70;99.90;;;7.80;88.57;99692.75;5031711;28;20050;-69
2023/03/07 00:54:52;;;;;;;26.42;10.63;;;7.70;99.90;;;7.75;88.81;99689.31;5033151;28;20050;-69
2023/03/07 00:57:20;;;;;;;17.15;9.40;;;7.60;99.90;;;7.77;88.84;99691.91;5031805;28;20080;-69
2023/03/07 00:59:48;;;;;;;19.92;9.68;;;7.60;99.90;;;7.71;89.02;99692.88;5033129;28;20038;-70
2023/03/07 01:02:18;;;;;;;18.20;9.35;;;7.60;99.90;;;7.68;88.77;99692.91;5048410;28;20087;-70
2023/03/07 01:04:47;;;;;;;15.63;8.83;;;7.60;99.90;;;7.88;88.04;99697.91;5033056;28;20041;-69
2023/03/07 01:07:15;;;;;;;18.30;9.18;;;7.70;99.90;;;7.77;87.65;99677.00;5032791;28;20299;-69
2023/03/07 01:09:46;;;;;;;17.17;8.95;;;7.70;99.90;;;7.80;87.92;99682.22;5032935;28;20053;-69
2023/03/07 01:12:14;;;;;;;18.55;9.98;;;7.60;99.90;;;7.83;87.68;99690.09;5032764;28;20476;-69
2023/03/07 01:14:42;;;;;;;23.08;9.20;;;7.70;99.90;;;7.87;87.91;99680.41;5031619;28;20511;-69
2023/03/07 01:17:11;;;;;;;16.67;8.88;;;7.70;99.90;;;7.77;88.00;99678.75;5031588;28;20057;-69
2023/03/07 01:19:41;;;;;;;21.08;9.93;;;7.60;99.90;;;7.75;87.37;99667.38;5031488;28;20045;-69
2023/03/07 01:22:09;;;;;;;17.33;9.10;;;7.60;99.90;;;7.80;87.39;99671.69;5031538;28;20046;-69
2023/03/07 01:24:39;;;;;;;18.02;8.57;;;7.60;99.90;;;7.72;87.04;99656.91;5031345;28;20055;-69
2023/03/07 01:27:07;;;;;;;10.20;8.18;;;7.60;99.90;;;7.85;87.01;99672.53;5033068;28;20050;-69
2023/03/07 01:29:35;;;;;;;20.05;9.13;;;7.60;99.90;;;7.82;86.90;99669.06;5032721;28;20095;-69
2023/03/07 01:32:04;;;;;;;14.98;9.27;;;7.60;99.90;;;7.73;86.88;99666.53;5031414;28;20049;-69
2023/03/07 01:34:32;;;;;;;19.13;9.35;;;7.60;99.90;;;7.79;86.87;99669.09;5031386;28;20107;-70
2023/03/07 01:37:02;;;;;;;21.60;9.40;;;7.60;99.90;;;7.83;87.10;99666.41;5032684;28;20109;-70
2023/03/07 01:39:31;;;;;;;21.40;9.38;;;7.60;99.90;;;7.78;87.60;99659.47;5031361;28;20046;-69
2023/03/07 01:42:07;;;;;;;17.02;9.23;;;7.60;99.90;;;7.74;88.29;99653.34;5031327;28;20045;-69
2023/03/07 01:45:01;;;;;;;18.42;9.00;;;7.60;99.90;;;7.71;88.48;99653.41;5031180;28;20427;-69
2023/03/07 01:47:47;;;;;;;21.80;9.85;;;7.60;99.90;;;7.72;87.99;99646.38;5031284;28;20052;-69
2023/03/07 01:50:18;;;;;;;16.13;9.23;;;7.50;99.90;;;7.79;87.91;99643.66;5031103;28;20147;-69
2023/03/07 01:52:50;;;;;;;17.58;9.82;;;7.60;99.90;;;7.82;87.74;99635.69;5031059;28;20141;-69
2023/03/07 01:55:22;;;;;;;17.95;9.55;;;7.70;99.90;;;7.76;87.59;99630.50;5030956;28;20084;-69
2023/03/07 01:57:55;;;;;;;17.10;8.68;;;7.70;99.90;;;7.79;87.64;99638.38;5031710;28;20049;-69
2023/03/07 02:00:28;;;;;;;17.50;9.75;;;7.70;99.90;;;7.91;87.66;99632.09;5051866;28;20048;-69
2023/03/07 02:03:06;;;;;;;13.18;8.65;;;7.70;99.90;;;7.91;86.78;99626.81;5036441;28;20041;-69
2023/03/07 02:05:39;;;;;;;15.90;9.55;;;7.80;99.90;;;7.85;86.21;99627.78;5035005;28;20488;-69
2023/03/07 02:08:14;;;;;;;18.73;9.30;;;7.70;99.90;;;7.85;86.00;99629.53;5034996;28;20050;-69
2023/03/07 02:10:43;;;;;;;17.90;9.70;;;7.70;99.90;;;7.83;86.13;99626.94;5051767;28;20080;-69
2023/03/07 02:13:11;;;;;;;20.75;9.65;;;7.70;99.90;;;7.86;86.04;99628.63;5036417;28;20044;-69
2023/03/07 02:15:41;;;;;;;12.88;8.95;;;7.70;99.90;;;7.93;86.05;99619.78;5034823;28;20050;-69
2023/03/07 02:18:09;;;;;;;20.75;9.43;;;7.70;99.90;;;7.94;86.18;99622.38;5034768;28;20049;-69
2023/03/07 02:20:47;;;;;;;14.68;9.40;;;7.80;99.90;;;7.96;85.94;99620.59;5034795;28;20519;-69
2023/03/07 02:23:25;;;;;;;21.30;10.00;;;7.70;99.90;;;7.95;86.34;99613.59;5036078;28;20476;-69
2023/03/07 02:26:00;;;;;;;18.20;10.70;;;7.70;99.90;;;7.87;86.69;99617.22;5034650;28;20060;-70
2023/03/07 02:28:30;;;;;;;21.48;9.57;;;7.70;99.90;;;7.90;87.06;99615.41;5034641;28;20053;-69
2023/03/07 02:31:02;;;;;;;19.05;10.35;;;7.70;99.90;;;7.83;87.76;99618.16;5034561;28;20111;-70
2023/03/07 02:33:33;;;;;;;16.20;8.52;;;7.60;99.90;;;7.89;88.34;99618.94;5034606;28;20049;-69
2023/03/07 02:36:10;;;;;;;15.75;7.30;;;7.70;99.90;;;7.78;89.07;99601.56;5034528;28;20511;-69
2023/03/07 02:38:47;;;;;;;19.15;8.23;;;7.60;99.90;;;7.78;89.76;99610.31;5034496;28;20041;-70
2023/03/07 02:41:21;;;;;;;17.98;7.28;;;7.60;99.90;;;7.71;90.25;99608.66;5034455;28;20046;-69
2023/03/07 02:43:50;;;;;;;20.70;8.05;;;7.50;99.90;;;7.61;89.95;99586.00;5035663;28;20139;-69
2023/03/07 02:46:19;;;;;;;17.20;8.70;;;7.50;99.90;;;7.82;90.34;99593.59;5034174;28;20127;-69
2023/03/07 02:48:47;;;;;;;25.20;8.43;;;7.60;99.90;;;7.70;90.21;99601.66;5034182;28;20361;-69
2023/03/07 02:51:16;;;;;;;17.02;7.40;;;7.50;99.90;;;7.69;90.33;99599.91;5033999;28;20504;-69
2023/03/07 02:53:46;;;;;;;18.42;7.20;;;7.50;99.90;;;7.78;90.68;99599.78;5034074;28;20566;-69
2023/03/07 02:56:14;;;;;;;21.77;8.82;;;7.50;99.90;;;7.76;90.79;99601.56;5034334;28;20399;-69
2023/03/07 02:58:43;;;;;;;18.75;8.15;;;7.50;99.90;;;7.64;90.45;99591.22;5033998;28;20068;-69
2023/03/07 03:01:13;;;;;;;15.27;8.43;;;7.50;99.90;;;7.64;90.69;99585.09;5033989;28;20115;-69
2023/03/07 03:03:41;;;;;;;16.10;8.70;;;7.40;99.90;;;7.67;90.17;99590.28;5035045;28;20049;-70
2023/03/07 03:06:10;;;;;;;13.57;7.95;;;7.40;99.90;;;7.59;90.15;99603.56;5035110;28;20037;-69
2023/03/07 03:08:38;;;;;;;15.25;8.63;;;7.40;99.90;;;7.64;90.46;99591.22;5035158;28;20045;-69
2023/03/07 03:11:07;;;;;;;22.98;9.52;;;7.40;99.90;;;7.54;90.48;99584.34;5034253;28;20071;-69
2023/03/07 03:13:36;;;;;;;18.52;9.25;;;7.40;99.90;;;7.55;91.06;99590.47;5035110;28;20149;-69
2023/03/07 03:16:07;;;;;;;17.17;9.32;;;7.30;99.90;;;7.44;91.55;99581.84;5033809;28;20052;-69
2023/03/07 03:18:38;;;;;;;19.50;9.10;;;7.30;99.90;;;7.53;91.54;99584.38;5033907;28;20048;-69
2023/03/07 03:21:10;;;;;;;21.25;9.70;;;7.30;99.90;;;7.70;91.14;99580.63;5034933;28;20051;-70
2023/03/07 03:23:39;;;;;;;26.25;10.40;;;7.40;99.90;;;7.64;91.24;99572.81;5033671;28;20084;-69
2023/03/07 03:26:11;;;;;;;21.95;10.40;;;7.40;99.90;;;7.71;90.57;99576.22;5033566;28;20046;-69
2023/03/07 03:28:40;;;;;;;19.83;10.25;;;7.50;99.90;;;7.72;91.06;99581.47;5034612;28;20041;-70
2023/03/07 03:31:13;;;;;;;19.33;10.95;;;7.60;99.90;;;7.63;90.67;99573.69;5033450;28;20115;-69
2023/03/07 03:33:45;;;;;;;16.33;9.65;;;7.50;99.90;;;7.35;87.46;99579.31;5033408;28;20073;-69
2023/03/07 03:36:16;;;;;;;11.57;9.18;;;7.30;99.90;;;7.21;83.84;99568.97;5034712;28;20045;-69
2023/03/07 03:38:48;;;;;;;13.18;9.20;;;7.10;99.90;;;7.19;83.71;99576.00;5033416;28;20400;-69
2023/03/07 03:41:16;;;;;;;13.05;8.93;;;7.10;99.90;;;7.07;83.50;99560.38;5033238;28;20045;-69
2023/03/07 03:43:47;;;;;;;12.85;9.15;;;7.00;99.90;;;7.18;83.89;99575.13;5033237;28;20484;-69
2023/03/07 03:46:18;;;;;;;14.35;9.93;;;7.00;99.90;;;7.07;84.65;99571.75;5033358;28;20051;-69
2023/03/07 03:48:52;;;;;;;;;;;6.90;99.90;;;7.25;84.90;99581.19;5050465;28;20053;-69
2023/03/07 03:51:24;;;;;;;15.38;9.13;;;7.10;99.90;;;7.17;84.60;99556.75;5032969;28;20303;-69
2023/03/07 03:53:56;;;;;;;13.13;9.30;;;7.00;99.90;;;7.23;84.62;99573.34;5033075;28;20096;-69
2023/03/07 03:56:27;;;;;;;14.48;9.30;;;7.00;99.90;;;7.09;85.10;99567.34;5049778;28;20073;-69
2023/03/07 03:58:57;;;;;;;12.73;9.93;;;7.00;99.90;;;7.14;85.21;99575.19;5034238;28;20049;-70
2023/03/07 04:01:27;;;;;;;;;;;7.00;99.90;;;6.37;86.40;99450.81;5050203;28;20045;-69
2023/03/07 04:03:58;;;;;;;22.63;12.27;;;6.90;99.90;;;6.97;88.03;99566.59;5032965;28;20387;-69
2023/03/07 04:06:30;;;;;;;16.42;10.30;;;6.80;99.90;;;7.24;88.01;99563.66;5032792;28;20136;-69
2023/03/07 04:08:59;;;;;;;11.93;9.55;;;7.00;99.90;;;7.40;87.83;99567.84;5032791;28;20056;-69
2023/03/07 04:11:27;;;;;;;16.10;10.35;;;7.10;99.90;;;7.32;87.75;99568.84;5034014;28;20033;-69
2023/03/07 04:13:56;;;;;;;13.85;9.00;;;7.10;99.90;;;7.23;87.92;99565.44;5032625;28;20546;-69
2023/03/07 04:16:24;;;;;;;19.30;8.52;;;7.00;99.90;;;7.17;88.47;99562.88;5032657;28;20045;-69
2023/03/07 04:18:54;;;;;;;18.08;8.02;;;7.00;99.90;;;7.00;89.19;99554.34;5032761;28;20038;-69
2023/03/07 04:21:24;;;;;;;16.17;7.07;;;6.90;99.90;;;7.18;90.57;99563.75;5032437;28;20065;-69
2023/03/07 04:23:57;;;;;;;13.10;5.63;;;6.90;99.90;;;6.52;90.84;99467.28;5049032;28;20053;-69
2023/03/07 04:26:28;;;;;;;15.63;6.00;;;6.90;99.90;;;7.12;91.04;99551.53;5049001;28;20079;-69
2023/03/07 04:28:58;;;;;;;15.73;6.18;;;6.90;99.90;;;7.27;91.08;99561.00;5033652;28;20172;-68
2023/03/07 04:31:31;;;;;;;17.48;6.53;;;7.00;99.90;;;7.25;91.07;99554.91;5032103;28;20100;-69
2023/03/07 04:34:02;;;;;;;13.40;5.80;;;7.00;99.90;;;7.42;90.99;99555.56;5032306;28;20052;-69
2023/03/07 04:36:32;;;;;;;9.98;6.18;;;7.10;99.90;;;7.47;90.27;99537.94;5049129;28;20408;-69
2023/03/07 04:39:00;;;;;;;13.45;5.10;;;7.30;99.90;;;7.23;90.49;99541.78;5033553;28;20038;-69
2023/03/07 04:41:31;;;;;;;14.13;5.38;;;7.10;99.90;;;7.39;90.70;99567.88;5032143;28;20048;-68
2023/03/07 04:44:04;;;;;;;12.80;6.32;;;7.10;99.90;;;7.52;90.04;99541.41;5033106;28;20049;-69
2023/03/07 04:46:32;;;;;;;11.75;5.47;;;7.30;99.90;;;7.26;89.34;99536.47;5031958;28;20483;-68
2023/03/07 04:49:01;;;;;;;14.20;4.85;;;7.20;99.90;;;7.17;89.66;99539.22;5032007;28;20100;-68
2023/03/07 04:51:29;;;;;;;13.68;4.55;;;7.00;99.90;;;7.18;89.04;99542.72;5031768;28;20409;-68
2023/03/07 04:53:59;;;;;;;10.40;5.10;;;7.00;99.90;;;7.20;89.33;99538.31;5033227;28;20403;-68
2023/03/07 04:56:27;;;;;;;9.65;4.22;;;7.00;99.90;;;7.21;88.39;99540.94;5031793;28;20045;-68
2023/03/07 04:58:57;;;;;;;12.25;6.28;;;7.00;99.90;;;6.98;88.69;99542.09;5031849;28;20128;-68
2023/03/07 05:01:25;;;;;;;11.48;4.95;;;6.80;99.90;;;6.82;90.06;99543.13;5031857;28;20456;-68
2023/03/07 05:03:55;;;;;;;11.45;4.95;;;6.60;99.90;;;6.86;90.46;99552.72;5031716;28;20053;-68
2023/03/07 05:06:24;;;;;;;13.63;5.07;;;6.60;99.90;;;6.90;90.86;99549.19;5031914;28;20045;-68
2023/03/07 05:08:53;;;;;;;10.35;4.72;;;6.70;99.90;;;6.85;91.00;99537.84;5031676;28;20088;-68
2023/03/07 05:11:22;;;;;;;12.40;4.50;;;6.60;99.90;;;6.86;91.17;99553.59;5033203;28;20053;-68
2023/03/07 05:13:52;;;;;;;12.10;5.10;;;6.60;99.90;;;6.73;91.29;99551.13;5031739;28;20053;-68
2023/03/07 05:16:22;;;;;;;7.50;4.45;;;6.50;99.90;;;6.48;91.23;99547.00;5031673;28;20073;-68
2023/03/07 05:18:50;;;;;;;14.10;5.53;;;6.40;99.90;;;6.27;92.38;99553.31;5031818;28;20045;-69
2023/03/07 05:21:19;;;;;;;11.00;5.38;;;6.20;99.90;;;6.12;93.59;99551.66;5032900;28;20069;-68
2023/03/07 05:23:48;;;;;;;11.50;4.95;;;6.00;99.90;;;6.04;94.24;99557.88;5031561;28;20056;-68
2023/03/07 05:26:17;;;;;;;7.28;5.00;;;5.90;99.90;;;5.98;94.29;99556.13;5031360;28;20049;-68
2023/03/07 05:28:47;;;;;;;11.13;5.20;;;5.80;99.90;;;6.03;94.40;99553.50;5033043;28;20077;-68
2023/03/07 05:31:15;;;;;;;11.35;5.88;;;5.90;99.90;;;5.91;94.76;99551.84;5032804;28;20073;-69
2023/03/07 05:33:46;;;;;;;14.45;4.78;;;5.80;99.90;;;5.73;94.45;99564.19;5035482;28;20060;-69
2023/03/07 05:36:15;;;;;;;8.07;5.28;;;5.60;99.90;;;5.61;94.74;99501.31;5039290;28;20496;-68
2023/03/07 05:38:43;;;;;;;9.45;4.65;;;5.70;99.90;;;5.68;94.02;99564.19;5039597;28;20072;-68
2023/03/07 05:41:12;;;;;;;10.18;5.35;;;5.60;99.90;;;5.35;94.20;99443.78;5054672;28;20068;-68
2023/03/07 05:43:42;;;;;;;;;;;5.80;99.90;;;5.41;93.55;99451.63;5055140;28;20060;-68
2023/03/07 05:46:12;;;;;;;4.88;4.40;;;6.00;99.90;;;6.11;92.36;99565.69;5038879;28;19944;-68
2023/03/07 05:48:41;;;;;;;10.32;4.47;;;6.00;99.90;;;6.07;92.41;99563.09;5054608;28;20046;-69
2023/03/07 05:51:10;;;;;;;5.50;4.13;;;6.00;99.90;;;6.19;92.29;99560.38;5054329;28;20061;-68
2023/03/07 05:53:38;;;;;;;7.43;5.20;;;6.10;99.90;;;6.32;91.83;99562.00;5037632;28;20057;-69
2023/03/07 05:56:08;;;;;;;6.90;4.63;;;6.20;99.90;;;6.08;91.67;99567.44;5037827;28;20057;-68
2023/03/07 05:58:37;;;;;;;5.13;4.47;;;6.00;99.90;;;5.95;92.61;99571.94;5037873;28;20080;-68
2023/03/07 06:01:06;;;;;;;9.45;5.22;;;5.90;99.90;;;5.78;92.66;99567.63;5037796;28;20136;-68
2023/03/07 06:03:36;;;;;;;7.10;4.50;;;5.70;99.90;;;5.59;92.39;99568.63;5037742;28;20412;-68
2023/03/07 06:06:05;;;;;;;7.50;4.82;;;5.60;99.90;;;5.53;93.90;99567.75;5039065;28;20439;-68
2023/03/07 06:08:33;;;;;;;9.07;4.65;;;5.40;99.90;;;5.66;94.04;99565.06;5037288;28;20048;-68
2023/03/07 06:11:02;;;;;;;8.55;4.93;;;5.40;99.90;;;5.49;94.29;99560.81;5038952;28;20054;-69
2023/03/07 06:13:30;;;;;;;8.40;4.70;;;5.30;99.90;;;5.59;94.20;99566.00;5037724;28;20467;-68
2023/03/07 06:15:59;;;;;;;8.05;5.03;;;5.40;99.90;;;5.61;94.49;99559.00;5037643;28;20037;-69
2023/03/07 06:18:27;;;;;;;7.63;4.90;;;5.40;99.90;;;5.84;94.04;99563.25;5037838;28;20045;-68
2023/03/07 06:20:59;;;;;;;8.57;4.53;;;5.60;99.90;;;5.69;93.71;99568.53;5038896;28;20099;-68
2023/03/07 06:23:33;;;;;;;11.18;5.00;;;5.50;99.90;;;5.66;94.16;99551.97;5037625;28;20145;-68
2023/03/07 06:26:03;;;;;;;8.23;4.57;;;5.50;99.90;;;5.73;94.03;99549.28;5037643;28;20493;-68
2023/03/07 06:28:32;;;;;;;6.88;4.68;;;5.60;99.90;;;6.03;93.85;99566.63;5037491;28;20570;-69
2023/03/07 06:31:07;;;;;;;8.82;4.05;;;5.80;99.90;;;6.10;92.65;99563.94;5054242;28;20053;-69
2023/03/07 06:33:35;;;;;;;5.47;4.60;;;5.90;99.90;;;5.84;93.21;99568.50;5037496;28;20076;-69
2023/03/07 06:36:08;;;;;;;10.60;4.47;;;5.70;99.90;;;5.94;92.81;99564.91;5038761;28;20095;-69
2023/03/07 06:38:38;;;;;;;10.10;4.78;;;5.80;99.90;;;6.12;92.41;99566.53;5037465;28;20542;-69
2023/03/07 06:41:07;;;;;;;10.20;4.88;;;6.00;99.90;;;5.66;92.46;99563.34;5054096;28;20075;-68
2023/03/07 06:43:36;;;;;;;6.32;4.93;;;5.70;99.90;;;5.76;92.67;99549.28;5038557;28;20037;-68
2023/03/07 06:46:06;;;;;;;5.22;4.70;;;5.70;99.90;;;5.92;92.58;99545.69;5033052;28;20155;-69
2023/03/07 06:48:38;;;;;;;6.38;4.53;;;5.90;99.90;;;5.82;91.93;99548.38;5034210;28;20047;-68
2023/03/07 06:51:12;;;;;;;5.22;4.70;;;5.80;99.90;;;5.99;93.30;99568.41;5034214;28;20049;-69
2023/03/07 06:53:42;;;;;;;8.17;5.50;;;5.80;99.90;;;6.17;92.57;99563.03;5033670;28;20053;-69
2023/03/07 06:56:11;;;;;;;7.95;4.90;;;6.00;99.90;;;5.97;91.82;99564.03;5034114;28;20476;-68
2023/03/07 06:58:40;;;;;;;9.93;4.68;;;5.90;99.90;;;5.82;92.41;99557.13;5034262;28;20049;-69
2023/03/07 07:01:17;;;;;;;8.37;4.63;;;5.80;99.90;;;5.88;92.71;99569.34;5034059;28;20049;-69
2023/03/07 07:03:47;;;;;;;6.28;5.18;;;5.80;99.90;;;5.66;92.80;99567.69;5033947;28;20041;-68
2023/03/07 07:06:18;;;;;;;8.27;4.95;;;5.60;99.90;;;5.89;92.63;99565.84;5033806;28;20041;-69
2023/03/07 07:08:47;;;;;;;10.43;5.57;;;5.70;99.90;;;5.72;93.40;99572.91;5033294;28;20492;-69
2023/03/07 07:11:16;;;;;;;11.02;5.20;;;5.60;99.90;;;5.70;92.80;99578.19;5033754;28;20128;-69
2023/03/07 07:13:45;;;;;;;9.55;4.80;;;5.60;99.90;;;5.61;92.98;99574.72;5033702;28;20085;-69
2023/03/07 07:16:18;;;;;;;7.20;4.73;;;5.50;99.90;;;5.47;93.15;99572.19;5033714;28;20095;-69
2023/03/07 07:18:50;;;;;;;7.45;5.03;;;5.40;99.90;;;5.53;92.76;99582.66;5034017;28;20053;-69
2023/03/07 07:21:20;;;;;;;7.53;4.63;;;5.50;99.90;;;5.66;92.11;99583.44;5050192;28;20041;-69
2023/03/07 07:23:49;;;;;;;7.55;5.13;;;5.60;99.90;;;5.35;93.18;99577.47;5034895;28;20044;-69
2023/03/07 07:26:18;;;;;;;6.10;4.37;;;5.30;99.90;;;5.28;94.44;99586.25;5033554;28;20041;-69
2023/03/07 07:28:46;;;;;;;8.83;5.33;;;5.20;99.90;;;5.09;94.80;99587.19;5033465;28;20037;-69
2023/03/07 07:31:15;;;;;;;6.70;4.40;;;5.00;99.90;;;5.15;94.71;99584.56;5033522;28;20053;-69
2023/03/07 07:33:45;;;;;;;9.70;4.65;;;5.00;99.90;;;5.07;95.24;99581.94;5033492;28;20431;-68
2023/03/07 07:36:15;;;;;;;6.97;5.10;;;4.90;99.90;;;5.02;95.57;99595.94;5033712;28;20061;-68
2023/03/07 07:38:44;;;;;;;8.20;5.03;;;4.90;99.90;;;4.96;95.68;99588.09;5033399;28;20083;-68
2023/03/07 07:41:13;;;;;;;6.00;5.00;;;4.80;99.90;;;4.97;96.12;99597.72;5033356;28;20049;-68
2023/03/07 07:43:41;;;;;;;7.33;4.87;;;4.80;99.90;;;5.18;96.35;99597.66;5034574;28;20439;-68
2023/03/07 07:46:17;;;;;;;10.17;4.53;;;4.90;99.90;;;5.00;96.00;99602.94;5049883;28;20064;-68
2023/03/07 07:48:47;;;;;;;7.67;5.40;;;4.90;99.90;;;5.31;96.39;99604.56;5049657;28;20045;-68
2023/03/07 07:51:17;;;;;;;7.63;4.88;;;5.10;99.90;;;5.39;96.01;99611.53;5033119;28;20049;-68
2023/03/07 07:53:47;;;;;;;10.83;5.03;;;5.20;99.90;;;5.74;95.55;99608.75;5049651;28;20191;-69
2023/03/07 07:56:16;;;;;;;11.82;5.38;;;5.50;99.90;;;5.66;94.69;99612.28;5049338;28;20077;-68
2023/03/07 07:58:44;;;;;;;10.35;4.45;;;5.50;99.90;;;5.85;94.70;99616.56;5032829;28;20447;-67
2023/03/07 08:01:15;;;;;;;10.80;5.03;;;5.60;99.90;;;6.10;94.14;99615.53;5032915;28;20049;-67
2023/03/07 08:03:44;;;;;;;6.88;4.35;;;5.90;99.90;;;6.24;93.68;99617.22;5032889;28;20118;-69
2023/03/07 08:06:13;;;;;;;7.47;4.68;;;6.10;99.90;;;5.98;92.80;99613.03;5033779;28;20041;-69
2023/03/07 08:08:41;;;;;;;7.93;5.43;;;5.90;99.90;;;6.04;93.16;99621.72;5033898;28;20575;-68
2023/03/07 08:11:11;;;;;;;10.55;4.60;;;5.90;99.90;;;5.80;92.89;99616.59;5033778;28;20041;-68
2023/03/07 08:13:42;;;;;;;10.02;5.03;;;5.70;99.90;;;5.75;92.23;99614.88;5034071;28;20451;-67
2023/03/07 08:16:13;;;;;;;8.80;4.97;;;5.70;99.90;;;5.47;92.52;99559.06;5033796;28;20037;-67
2023/03/07 08:18:43;;;;;;;10.23;5.32;;;5.60;99.90;;;5.84;93.07;99610.47;5034214;28;20046;-67
2023/03/07 08:21:11;;;;;;;9.43;4.53;;;5.60;99.90;;;6.04;92.93;99618.25;5033579;28;20056;-68
2023/03/07 08:23:40;;;;;;;8.77;4.97;;;5.80;99.90;;;5.95;92.16;99613.91;5033788;28;20048;-67
2023/03/07 08:26:12;;;;;;;6.75;4.82;;;5.80;99.90;;;5.95;92.75;99613.91;5033466;28;20436;-62
2023/03/07 08:28:42;;;;;;;6.20;4.20;;;5.80;99.90;;;6.10;92.21;99605.03;5033435;28;20037;-68
2023/03/07 08:31:13;;;;;;;10.95;4.82;;;5.90;99.90;;;6.00;92.02;99606.88;5032900;28;20055;-64
2023/03/07 08:33:43;;;;;;;9.50;4.95;;;5.80;99.90;;;5.83;92.71;99607.81;5033463;28;20053;-64
2023/03/07 08:36:11;;;;;;;7.50;4.37;;;5.70;99.90;;;5.78;93.14;99609.59;5033289;28;20041;-66
2023/03/07 08:38:39;;;;;;;6.53;4.38;;;5.60;99.90;;;5.66;92.75;99613.16;5033199;28;20052;-67
2023/03/07 08:41:09;;;;;;;10.88;5.05;;;5.50;99.90;;;5.75;93.17;99607.84;5033140;28;20489;-67
2023/03/07 08:43:39;;;;;;;8.73;4.20;;;5.50;99.90;;;5.82;92.86;99606.09;5033497;28;20502;-68
2023/03/07 08:46:07;;;;;;;9.20;4.67;;;5.60;99.90;;;5.62;93.36;99608.81;5033421;28;20056;-67
2023/03/07 08:48:36;;;;;;;8.37;4.77;;;5.50;99.90;;;5.69;93.59;99600.03;5033486;28;20041;-67
2023/03/07 08:51:07;;;;;;;7.40;4.50;;;5.60;99.90;;;5.90;93.16;99605.19;5032960;28;20485;-68
2023/03/07 08:53:37;;;;;;;7.55;4.53;;;5.70;99.90;;;5.60;92.82;99573.84;5033019;28;20076;-68
2023/03/07 08:56:07;;;;;;;9.45;4.55;;;5.60;99.90;;;5.75;93.55;99597.38;5032948;28;20107;-69
2023/03/07 08:58:37;;;;;;;7.93;4.80;;;5.50;99.90;;;5.79;93.21;99599.09;5033556;28;20060;-70
2023/03/07 09:01:08;;;;;;;7.80;5.00;;;5.60;99.90;;;5.97;93.33;99601.66;5033125;28;20388;-69
2023/03/07 09:03:36;;;;;;;11.38;5.25;;;5.70;99.90;;;5.86;93.03;99603.47;5033144;28;20041;-70
2023/03/07 09:06:09;;;;;;;8.63;4.32;;;5.70;99.90;;;5.78;93.49;99604.34;5031958;28;20472;-70
2023/03/07 09:08:38;;;;;;;7.93;4.20;;;5.60;99.90;;;5.66;92.70;99605.28;5032192;28;20049;-67
2023/03/07 09:11:07;;;;;;;6.13;4.43;;;5.50;99.90;;;5.81;93.22;99614.81;5033014;28;20409;-68
2023/03/07 09:13:36;;;;;;;6.72;4.57;;;5.60;99.90;;;5.88;92.01;99616.59;5033000;28;20115;-67
2023/03/07 09:16:21;;;;;;;4.43;3.92;;;5.70;99.90;;;5.95;92.04;99619.16;5032659;28;20484;-71
2023/03/07 09:18:49;;;;;;;8.07;4.65;;;5.70;99.90;;;5.85;92.19;99616.56;5032694;28;20049;-71
2023/03/07 09:21:18;;;;;;;6.72;4.43;;;5.70;99.90;;;5.97;91.61;99617.41;5032838;28;20033;-69
2023/03/07 09:23:46;;;;;;;8.20;4.47;;;5.80;99.90;;;5.81;91.73;99610.44;5032552;28;20091;-69
2023/03/07 09:26:15;;;;;;;7.13;4.40;;;5.70;99.90;;;5.81;92.15;99613.06;5032541;28;20048;-69
2023/03/07 09:28:43;;;;;;;10.18;4.82;;;5.60;99.90;;;5.81;92.30;99604.31;5031417;28;20051;-70
2023/03/07 09:31:15;;;;;;;9.68;4.65;;;5.60;99.90;;;5.71;91.91;99619.25;5033006;28;20041;-69
2023/03/07 09:33:44;;;;;;;6.18;4.63;;;5.60;99.90;;;5.77;92.32;99648.06;5031497;28;20073;-69
2023/03/07 09:36:15;;;;;;;9.38;4.38;;;5.60;99.90;;;5.99;91.31;99620.00;5032784;28;20049;-69
2023/03/07 09:38:43;;;;;;;8.45;4.75;;;5.70;99.90;;;5.96;90.01;99622.66;5032685;28;20120;-69
2023/03/07 09:41:51;;;;;;;6.18;4.20;;;5.80;99.90;;;6.15;89.45;99645.28;5033203;28;20037;-68
2023/03/07 09:44:33;;;;;;;5.28;3.92;;;5.90;99.90;;;6.18;88.72;99617.25;5031361;28;20060;-68
2023/03/07 09:47:53;;;;;;;7.90;4.32;;;6.10;99.90;;;6.21;87.16;99605.88;5009090;28;20053;-68
2023/03/07 09:50:32;;;;;;;4.93;4.20;;;6.00;99.90;;;6.36;86.35;99613.63;5032318;28;20439;-69
2023/03/07 09:53:03;;;;;;;8.02;4.28;;;6.20;99.90;;;6.23;84.79;99607.56;5032773;28;20519;-68
2023/03/07 09:55:32;;;;;;;8.43;4.35;;;6.20;99.90;;;6.10;83.96;99624.28;5031293;28;20168;-68
2023/03/07 09:58:06;;;;;;;6.07;4.03;;;6.10;99.90;;;6.16;83.31;99632.13;5047897;28;20107;-68
2023/03/07 10:00:39;;;;;;;8.00;4.03;;;6.10;99.90;;;5.97;83.36;99591.16;5032831;28;20455;-68
2023/03/07 10:03:19;;;;;;;7.53;4.40;;;6.00;99.90;;;6.22;82.22;99628.59;5032562;28;20088;-68
2023/03/07 10:05:51;;;;;;;6.45;4.20;;;6.00;99.90;;;6.02;82.34;99617.38;5032258;28;20047;-68
2023/03/07 10:08:22;;;;;;;4.55;4.15;;;5.90;99.90;;;6.06;83.45;99632.19;5032489;28;20044;-68
2023/03/07 10:11:03;;;;;;;6.28;4.05;;;5.90;99.90;;;5.83;82.15;99613.06;5032215;28;20068;-69
2023/03/07 10:13:49;;;;;;;6.28;4.28;;;5.80;99.90;;;5.85;82.96;99619.19;5032354;28;20091;-68
2023/03/07 10:16:28;;;;;;;9.48;4.25;;;5.70;99.90;;;5.62;83.63;99585.22;5032440;28;20060;-68
2023/03/07 10:19:10;;;;;;;7.07;4.88;;;5.60;99.90;;;6.07;84.64;99618.22;5032659;28;20053;-68
2023/03/07 10:21:49;;;;;;;6.93;4.70;;;5.80;99.90;;;6.38;85.28;99625.88;5036143;28;20046;-68
2023/03/07 10:25:02;;;;;;;7.60;4.28;;;6.10;99.90;;;6.36;87.18;99632.88;5034750;28;20077;-69
2023/03/07 10:27:31;;;;;;;10.70;5.25;;;6.20;99.90;;;6.55;87.88;99619.56;5035695;28;20064;-68
2023/03/07 10:30:11;;;;;;;6.05;4.68;;;6.40;99.90;;;6.52;87.73;99617.88;5035617;28;20124;-68
2023/03/07 10:32:44;;;;;;;8.88;4.70;;;6.40;99.90;;;6.68;87.77;99624.72;5035513;28;20489;-68
2023/03/07 10:35:19;;;;;;;5.95;4.20;;;6.60;99.90;;;6.24;87.74;99522.69;5035788;28;20045;-68
2023/03/07 10:37:52;;;;;;;6.15;4.40;;;6.70;99.90;;;6.85;87.70;99632.47;5035546;28;20064;-68
2023/03/07 10:40:26;;;;;;;11.00;4.40;;;6.70;99.90;;;6.87;87.56;99641.19;5036065;28;20045;-68
2023/03/07 10:42:55;;;;;;;6.22;4.50;;;6.80;99.90;;;6.21;89.79;99637.38;5036011;28;20598;-68
2023/03/07 10:45:24;;;;;;;9.00;4.82;;;6.30;99.90;;;6.26;91.15;99628.56;5035347;28;20049;-68